createdAt,value
2019-05-11T00:00:07.867Z,21.40
2019-05-11T00:02:37.876Z,21.40
2019-05-11T00:05:07.476Z,21.40
2019-05-11T00:07:37.064Z,21.40
2019-05-11T00:10:09.330Z,21.40
2019-05-11T00:12:38.923Z,21.40
2019-05-11T00:15:08.473Z,21.40
2019-05-11T00:17:38.014Z,21.40
2019-05-11T00:20:08.127Z,21.40
2019-05-11T00:22:37.670Z,21.40
2019-05-11T00:25:07.788Z,21.40
2019-05-11T00:27:37.318Z,21.40
2019-05-11T00:30:06.871Z,21.40
2019-05-11T00:32:36.426Z,21.40
2019-05-11T00:35:07.527Z,21.40
2019-05-11T00:37:37.113Z,21.40
2019-05-11T00:40:14.430Z,21.40
2019-05-11T00:42:39.460Z,21.40
2019-05-11T00:45:09.006Z,21.40
2019-05-11T00:47:38.957Z,21.30
2019-05-11T00:50:09.156Z,21.40
2019-05-11T00:52:38.972Z,21.30
2019-05-11T00:55:08.567Z,21.30
2019-05-11T00:57:38.128Z,21.30
2019-05-11T01:00:08.290Z,21.30
2019-05-11T01:02:37.854Z,21.40
2019-05-11T01:05:07.539Z,21.40
2019-05-11T01:07:37.106Z,21.30
2019-05-11T01:10:21.727Z,21.30
2019-05-11T01:12:39.430Z,21.40
2019-05-11T01:15:09.270Z,21.40
2019-05-11T01:17:38.846Z,21.40
2019-05-11T01:20:08.426Z,21.40
2019-05-11T01:22:37.996Z,21.40
2019-05-11T01:25:07.584Z,21.40
2019-05-11T01:27:37.119Z,21.30
2019-05-11T01:30:06.985Z,21.30
2019-05-11T01:32:36.850Z,21.30
2019-05-11T01:35:09.379Z,21.30
2019-05-11T01:37:39.138Z,21.30
2019-05-11T01:40:08.679Z,21.30
2019-05-11T01:42:38.508Z,21.30
2019-05-11T01:45:08.416Z,21.30
2019-05-11T01:47:38.320Z,21.30
2019-05-11T01:50:08.245Z,21.30
2019-05-11T01:52:37.796Z,21.30
2019-05-11T01:55:07.345Z,21.30
2019-05-11T01:57:36.927Z,21.30
2019-05-11T02:00:08.414Z,21.30
2019-05-11T02:02:38.044Z,21.30
2019-05-11T02:05:25.732Z,21.30
2019-05-11T02:07:55.321Z,21.30
2019-05-11T02:10:25.179Z,21.30
2019-05-11T02:12:54.763Z,21.30
2019-05-11T02:15:25.415Z,21.20
2019-05-11T02:17:54.982Z,21.30
2019-05-11T02:20:24.555Z,21.30
2019-05-11T02:22:54.110Z,21.20
2019-05-11T02:25:23.681Z,21.30
2019-05-11T02:27:53.264Z,21.30
2019-05-11T02:30:22.781Z,21.30
2019-05-11T02:32:52.397Z,21.30
2019-05-11T02:35:21.954Z,21.30
2019-05-11T02:37:51.483Z,21.30
2019-05-11T02:40:21.053Z,21.30
2019-05-11T02:42:50.588Z,21.20
2019-05-11T02:45:37.864Z,21.30
2019-05-11T02:48:07.422Z,21.30
2019-05-11T02:50:38.813Z,21.30
2019-05-11T02:53:08.778Z,21.30
2019-05-11T02:55:38.329Z,21.30
2019-05-11T02:58:08.074Z,21.20
2019-05-11T03:00:40.097Z,21.20
2019-05-11T03:03:10.530Z,21.20
2019-05-11T03:05:40.084Z,21.20
2019-05-11T03:08:09.628Z,21.20
2019-05-11T03:10:39.202Z,21.20
2019-05-11T03:13:09.670Z,21.20
2019-05-11T03:15:39.284Z,21.20
2019-05-11T03:18:08.786Z,21.20
2019-05-11T03:20:39.362Z,21.20
2019-05-11T03:23:08.907Z,21.20
2019-05-11T03:25:38.813Z,21.20
2019-05-11T03:28:08.376Z,21.20
2019-05-11T03:30:37.931Z,21.20
2019-05-11T03:33:07.531Z,21.20
2019-05-11T03:35:37.081Z,21.20
2019-05-11T03:38:06.626Z,21.20
2019-05-11T03:40:37.127Z,21.20
2019-05-11T03:43:06.692Z,21.20
2019-05-11T03:45:36.325Z,21.20
2019-05-11T03:48:05.881Z,21.20
2019-05-11T03:50:35.440Z,21.20
2019-05-11T03:53:05.003Z,21.20
2019-05-11T03:55:34.556Z,21.20
2019-05-11T03:58:04.124Z,21.20
2019-05-11T04:00:34.770Z,21.20
2019-05-11T04:03:04.408Z,21.20
2019-05-11T04:05:33.960Z,21.20
2019-05-11T04:08:03.517Z,21.20
2019-05-11T04:10:34.161Z,21.20
2019-05-11T04:13:03.704Z,21.20
2019-05-11T04:15:33.271Z,21.20
2019-05-11T04:18:02.822Z,21.20
2019-05-11T04:20:32.431Z,21.20
2019-05-11T04:23:01.964Z,21.20
2019-05-11T04:25:31.536Z,21.20
2019-05-11T04:28:01.104Z,21.20
2019-05-11T04:30:30.636Z,21.20
2019-05-11T04:33:00.277Z,21.20
2019-05-11T04:35:29.792Z,21.20
2019-05-11T04:37:59.356Z,21.20
2019-05-11T04:40:28.917Z,21.20
2019-05-11T04:42:59.338Z,21.20
2019-05-11T04:45:28.903Z,21.20
2019-05-11T04:47:58.459Z,21.20
2019-05-11T04:50:28.132Z,21.20
2019-05-11T04:52:58.685Z,21.20
2019-05-11T04:55:28.253Z,21.20
2019-05-11T04:57:58.249Z,21.20
2019-05-11T05:00:27.782Z,21.20
2019-05-11T05:02:57.358Z,21.20
2019-05-11T05:05:26.927Z,21.20
2019-05-11T05:08:08.656Z,21.20
2019-05-11T05:10:27.655Z,21.20
2019-05-11T05:13:09.663Z,21.20
2019-05-11T05:15:29.262Z,21.20
2019-05-11T05:17:58.816Z,21.20
2019-05-11T05:20:28.381Z,21.20
2019-05-11T05:22:57.939Z,21.20
2019-05-11T05:25:27.498Z,21.20
2019-05-11T05:27:57.068Z,21.20
2019-05-11T05:34:13.927Z,21.20
2019-05-11T05:36:43.239Z,21.20
2019-05-11T05:39:12.542Z,21.20
2019-05-11T05:41:42.538Z,21.20
2019-05-11T05:44:12.055Z,21.20
2019-05-11T05:46:41.467Z,21.20
2019-05-11T05:49:10.767Z,21.30
2019-05-11T05:51:41.032Z,21.20
2019-05-11T05:54:10.356Z,21.30
2019-05-11T05:56:39.670Z,21.20
2019-05-11T05:59:08.980Z,21.20
2019-05-11T06:01:38.271Z,21.20
2019-05-11T06:04:07.731Z,21.30
2019-05-11T06:06:37.039Z,21.30
2019-05-11T06:09:07.367Z,21.30
2019-05-11T06:11:36.664Z,21.30
2019-05-11T06:14:06.020Z,21.20
2019-05-11T06:16:36.222Z,21.30
2019-05-11T06:19:05.577Z,21.30
2019-05-11T06:21:34.858Z,21.30
2019-05-11T06:24:07.134Z,21.30
2019-05-11T06:26:35.127Z,21.30
2019-05-11T06:29:04.463Z,21.30
2019-05-11T06:31:33.722Z,21.30
2019-05-11T06:34:03.062Z,21.40
2019-05-11T06:36:32.449Z,21.40
2019-05-11T06:39:01.782Z,21.40
2019-05-11T06:41:32.146Z,21.40
2019-05-11T06:44:02.322Z,21.40
2019-05-11T06:46:34.873Z,21.40
2019-05-11T06:49:02.706Z,21.40
2019-05-11T06:51:32.019Z,21.40
2019-05-11T06:54:01.320Z,21.50
2019-05-11T06:56:30.611Z,21.50
2019-05-11T06:58:59.938Z,21.50
2019-05-11T07:01:29.241Z,21.50
2019-05-11T07:03:59.692Z,21.50
2019-05-11T07:06:30.596Z,21.50
2019-05-11T07:09:00.248Z,21.50
2019-05-11T07:11:29.555Z,21.60
2019-05-11T07:13:58.944Z,21.60
2019-05-11T07:16:28.242Z,21.60
2019-05-11T07:18:57.683Z,21.60
2019-05-11T07:21:26.998Z,21.70
2019-05-11T07:23:56.303Z,21.70
2019-05-11T07:26:25.614Z,21.70
2019-05-11T07:28:54.919Z,21.70
2019-05-11T07:31:24.334Z,21.70
2019-05-11T07:33:53.650Z,21.70
2019-05-11T07:36:22.957Z,21.70
2019-05-11T07:38:52.310Z,21.80
2019-05-11T07:41:21.612Z,21.80
2019-05-11T07:43:50.900Z,21.80
2019-05-11T07:46:20.219Z,21.80
2019-05-11T07:48:49.519Z,21.90
2019-05-11T07:51:18.855Z,21.90
2019-05-11T07:53:49.105Z,21.90
2019-05-11T07:56:18.911Z,21.90
2019-05-11T07:58:50.504Z,21.90
2019-05-11T08:01:19.880Z,21.90
2019-05-11T08:03:49.616Z,22.00
2019-05-11T08:06:19.186Z,22.00
2019-05-11T08:08:49.011Z,22.00
2019-05-11T08:11:18.540Z,22.00
2019-05-11T08:13:48.270Z,22.00
2019-05-11T08:16:18.623Z,22.10
2019-05-11T08:18:49.053Z,22.10
2019-05-11T08:21:18.332Z,22.10
2019-05-11T08:23:48.513Z,22.10
2019-05-11T08:26:19.055Z,22.10
2019-05-11T08:28:48.753Z,22.10
2019-05-11T08:31:18.811Z,22.10
2019-05-11T08:33:48.558Z,22.10
2019-05-11T08:36:18.547Z,22.10
2019-05-11T08:38:48.496Z,22.10
2019-05-11T08:41:18.582Z,22.10
2019-05-11T08:43:48.308Z,22.20
2019-05-11T08:46:18.609Z,22.20
2019-05-11T08:48:48.328Z,22.20
2019-05-11T08:51:18.668Z,22.20
2019-05-11T08:53:49.495Z,22.20
2019-05-11T08:56:19.104Z,22.20
2019-05-11T08:58:49.630Z,22.10
2019-05-11T09:01:19.178Z,22.10
2019-05-11T09:03:48.756Z,22.10
2019-05-11T09:06:18.318Z,22.10
2019-05-11T09:08:49.261Z,22.20
2019-05-11T09:11:19.302Z,22.20
2019-05-11T09:13:49.096Z,22.20
2019-05-11T09:16:19.201Z,22.20
2019-05-11T09:18:51.570Z,22.20
2019-05-11T09:21:21.113Z,22.20
2019-05-11T09:23:50.682Z,22.10
2019-05-11T09:26:20.243Z,22.10
2019-05-11T09:28:49.802Z,22.10
2019-05-11T09:31:19.648Z,22.00
2019-05-11T09:33:49.294Z,22.00
2019-05-11T09:36:18.954Z,22.10
2019-05-11T09:38:49.161Z,22.10
2019-05-11T09:41:18.759Z,22.00
2019-05-11T09:43:48.495Z,22.00
2019-05-11T09:46:18.833Z,22.10
2019-05-11T09:48:48.767Z,22.10
2019-05-11T09:51:18.639Z,22.00
2019-05-11T09:53:48.572Z,22.10
2019-05-11T09:56:18.570Z,22.10
2019-05-11T09:58:48.271Z,22.10
2019-05-11T10:01:18.410Z,22.20
2019-05-11T10:03:48.372Z,22.20
2019-05-11T10:06:18.955Z,22.20
2019-05-11T10:08:48.980Z,22.20
2019-05-11T10:11:19.080Z,22.20
2019-05-11T10:13:48.779Z,22.30
2019-05-11T10:16:18.353Z,22.30
2019-05-11T10:18:49.151Z,22.30
2019-05-11T10:21:20.788Z,22.30
2019-05-11T10:23:50.351Z,22.30
2019-05-11T10:26:19.896Z,22.40
2019-05-11T10:28:49.591Z,22.40
2019-05-11T10:31:19.151Z,22.40
2019-05-11T10:33:49.175Z,22.40
2019-05-11T10:36:19.959Z,22.40
2019-05-11T10:38:49.503Z,22.40
2019-05-11T10:41:19.104Z,22.30
2019-05-11T10:43:49.183Z,22.30
2019-05-11T10:46:22.919Z,22.30
2019-05-11T10:48:50.102Z,22.20
2019-05-11T10:51:19.658Z,22.30
2019-05-11T10:53:51.978Z,22.30
2019-05-11T10:56:20.438Z,22.30
2019-05-11T10:58:50.026Z,22.30
2019-05-11T11:01:19.839Z,22.20
2019-05-11T11:03:49.396Z,22.30
2019-05-11T11:06:19.044Z,22.30
2019-05-11T11:08:48.871Z,22.30
2019-05-11T11:11:18.733Z,22.40
2019-05-11T11:13:48.353Z,22.40
2019-05-11T11:16:35.132Z,22.30
2019-05-11T11:18:49.186Z,22.40
2019-05-11T11:21:22.567Z,22.30
2019-05-11T11:23:49.915Z,22.40
2019-05-11T11:26:20.485Z,22.40
2019-05-11T11:28:50.048Z,22.40
2019-05-11T11:31:19.605Z,22.40
2019-05-11T11:33:49.240Z,22.30
2019-05-11T11:36:18.814Z,22.30
2019-05-11T11:38:48.394Z,22.30
2019-05-11T11:41:18.777Z,22.30
2019-05-11T11:43:49.443Z,22.30
2019-05-11T11:46:19.033Z,22.30
2019-05-11T11:48:49.110Z,22.30
2019-05-11T11:51:19.077Z,22.30
2019-05-11T11:53:48.677Z,22.30
2019-05-11T11:56:19.204Z,22.30
2019-05-11T11:58:49.099Z,22.30
2019-05-11T12:01:19.215Z,22.30
2019-05-11T12:03:49.133Z,22.30
2019-05-11T12:06:18.707Z,22.30
2019-05-11T12:08:49.680Z,22.30
2019-05-11T12:11:19.533Z,22.30
2019-05-11T12:13:49.138Z,22.30
2019-05-11T12:16:18.703Z,22.30
2019-05-11T12:18:48.821Z,22.30
2019-05-11T12:21:18.791Z,22.30
2019-05-11T12:23:48.810Z,22.30
2019-05-11T12:26:18.594Z,22.30
2019-05-11T12:28:48.964Z,22.30
2019-05-11T12:31:18.757Z,22.20
2019-05-11T12:33:48.606Z,22.30
2019-05-11T12:36:18.950Z,22.30
2019-05-11T12:38:49.147Z,22.30
2019-05-11T12:41:19.155Z,22.30
2019-05-11T12:43:49.090Z,22.30
2019-05-11T12:46:19.110Z,22.30
2019-05-11T12:48:49.675Z,22.30
2019-05-11T12:51:19.257Z,22.30
2019-05-11T12:53:49.658Z,22.30
2019-05-11T12:56:19.498Z,22.20
2019-05-11T12:58:49.309Z,22.20
2019-05-11T13:01:19.074Z,22.20
2019-05-11T13:03:49.328Z,22.20
2019-05-11T13:06:19.297Z,22.20
2019-05-11T13:08:49.247Z,22.20
2019-05-11T13:11:18.961Z,22.20
2019-05-11T13:13:48.656Z,22.20
2019-05-11T13:16:18.697Z,22.20
2019-05-11T13:18:48.804Z,22.20
2019-05-11T13:21:20.314Z,22.20
2019-05-11T13:23:49.914Z,22.20
2019-05-11T13:26:19.474Z,22.20
2019-05-11T13:28:49.050Z,22.30
2019-05-11T13:31:18.919Z,22.30
2019-05-11T13:33:48.710Z,22.20
2019-05-11T13:36:18.745Z,22.20
2019-05-11T13:38:48.613Z,22.30
2019-05-11T13:41:19.060Z,22.30
2019-05-11T13:43:48.849Z,22.30
2019-05-11T13:46:18.422Z,22.30
2019-05-11T13:48:47.979Z,22.30
2019-05-11T13:51:18.177Z,22.30
2019-05-11T13:53:48.381Z,22.30
2019-05-11T13:56:18.710Z,22.30
2019-05-11T13:58:49.259Z,22.30
2019-05-11T14:01:18.903Z,22.30
2019-05-11T14:03:48.665Z,22.30
2019-05-11T14:06:18.682Z,22.30
2019-05-11T14:08:48.376Z,22.30
2019-05-11T14:11:19.026Z,22.40
2019-05-11T14:13:48.605Z,22.40
2019-05-11T14:16:18.810Z,22.40
2019-05-11T14:18:49.030Z,22.40
2019-05-11T14:21:18.781Z,22.40
2019-05-11T14:23:48.681Z,22.30
2019-05-11T14:26:19.102Z,22.30
2019-05-11T14:28:48.931Z,22.30
2019-05-11T14:31:19.150Z,22.30
2019-05-11T14:33:50.203Z,22.30
2019-05-11T14:36:19.757Z,22.30
2019-05-11T14:38:49.335Z,22.30
2019-05-11T14:41:18.899Z,22.30
2019-05-11T14:43:49.014Z,22.30
2019-05-11T14:46:18.720Z,22.30
2019-05-11T14:48:48.330Z,22.30
2019-05-11T14:51:18.232Z,22.30
2019-05-11T14:53:48.324Z,22.20
2019-05-11T14:56:18.967Z,22.30
2019-05-11T14:58:50.183Z,22.20
2019-05-11T15:01:19.794Z,22.30
2019-05-11T15:03:49.350Z,22.20
2019-05-11T15:06:19.106Z,22.20
2019-05-11T15:08:48.650Z,22.20
2019-05-11T15:11:19.196Z,22.20
2019-05-11T15:13:49.077Z,22.20
2019-05-11T15:16:19.670Z,22.20
2019-05-11T15:18:49.263Z,22.20
2019-05-11T15:21:19.111Z,22.20
2019-05-11T15:23:49.566Z,22.20
2019-05-11T15:26:19.124Z,22.20
2019-05-11T15:28:49.521Z,22.20
2019-05-11T15:31:22.345Z,22.20
2019-05-11T15:33:50.278Z,22.20
2019-05-11T15:36:19.875Z,22.20
2019-05-11T15:38:49.472Z,22.20
2019-05-11T15:41:19.014Z,22.20
2019-05-11T15:43:48.581Z,22.20
2019-05-11T15:46:19.856Z,22.20
2019-05-11T15:48:59.431Z,22.20
2019-05-11T15:51:20.698Z,22.20
2019-05-11T15:53:50.426Z,22.30
2019-05-11T15:56:20.246Z,22.20
2019-05-11T15:58:51.560Z,22.30
2019-05-11T16:01:21.125Z,22.30
2019-05-11T16:03:50.702Z,22.30
2019-05-11T16:06:20.269Z,22.30
2019-05-11T16:08:49.835Z,22.20
2019-05-11T16:11:19.394Z,22.30
2019-05-11T16:13:48.957Z,22.30
2019-05-11T16:16:18.553Z,22.30
2019-05-11T16:18:48.375Z,22.20
2019-05-11T16:21:19.422Z,22.20
2019-05-11T16:23:48.978Z,22.20
2019-05-11T16:26:18.552Z,22.20
2019-05-11T16:28:48.107Z,22.20
2019-05-11T16:31:18.024Z,22.20
2019-05-11T16:33:48.365Z,22.20
2019-05-11T16:36:18.328Z,22.20
2019-05-11T16:38:48.437Z,22.20
2019-05-11T16:41:21.006Z,22.20
2019-05-11T16:43:49.147Z,22.20
2019-05-11T16:46:19.758Z,22.20
2019-05-11T16:48:49.330Z,22.10
2019-05-11T16:51:18.899Z,22.20
2019-05-11T16:53:48.451Z,22.10
2019-05-11T16:56:19.654Z,22.10
2019-05-11T16:58:50.509Z,22.10
2019-05-11T17:01:20.122Z,22.10
2019-05-11T17:03:49.688Z,22.10
2019-05-11T17:06:19.848Z,22.10
2019-05-11T17:08:50.421Z,22.10
2019-05-11T17:11:19.979Z,22.10
2019-05-11T17:13:49.527Z,22.10
2019-05-11T17:16:19.094Z,22.10
2019-05-11T17:18:48.662Z,22.10
2019-05-11T17:21:18.503Z,22.10
2019-05-11T17:23:48.822Z,22.10
2019-05-11T17:26:19.180Z,22.00
2019-05-11T17:28:49.079Z,22.10
2019-05-11T17:31:19.610Z,22.00
2019-05-11T17:33:49.205Z,22.00
2019-05-11T17:36:18.854Z,22.00
2019-05-11T17:38:48.410Z,22.00
2019-05-11T17:41:17.983Z,22.00
2019-05-11T17:43:48.048Z,22.00
2019-05-11T17:46:18.394Z,22.00
2019-05-11T17:48:48.214Z,22.00
2019-05-11T17:51:21.683Z,22.00
2019-05-11T17:53:48.982Z,22.00
2019-05-11T17:56:18.540Z,22.00
2019-05-11T17:58:48.398Z,22.00
2019-05-11T18:01:19.433Z,22.00
2019-05-11T18:03:49.162Z,22.00
2019-05-11T18:06:18.711Z,22.00
2019-05-11T18:08:48.596Z,22.00
2019-05-11T18:11:18.626Z,22.00
2019-05-11T18:13:48.363Z,21.90
2019-05-11T18:16:18.949Z,21.90
2019-05-11T18:18:48.516Z,21.90
2019-05-11T18:21:18.815Z,21.90
2019-05-11T18:23:54.734Z,21.90
2019-05-11T18:26:24.292Z,21.90
2019-05-11T18:28:53.864Z,22.00
2019-05-11T18:31:23.406Z,21.90
2019-05-11T18:33:57.963Z,21.90
2019-05-11T18:36:28.789Z,21.90
2019-05-11T18:38:57.894Z,21.90
2019-05-11T18:41:28.257Z,21.90
2019-05-11T18:43:58.592Z,21.90
2019-05-11T18:46:28.283Z,21.90
2019-05-11T18:48:57.854Z,21.90
2019-05-11T18:51:27.433Z,21.90
2019-05-11T18:53:58.548Z,21.80
2019-05-11T18:56:28.642Z,21.80
2019-05-11T18:58:58.386Z,21.80
2019-05-11T19:01:28.580Z,21.90
2019-05-11T19:04:00.151Z,21.80
2019-05-11T19:06:30.121Z,21.90
2019-05-11T19:09:00.038Z,21.80
2019-05-11T19:11:29.652Z,21.80
2019-05-11T19:13:59.280Z,21.80
2019-05-11T19:16:28.946Z,21.80
2019-05-11T19:18:58.720Z,21.80
2019-05-11T19:21:28.266Z,21.80
2019-05-11T19:23:58.169Z,21.80
2019-05-11T19:26:28.884Z,21.80
2019-05-11T19:29:00.809Z,21.80
2019-05-11T19:31:29.643Z,21.80
2019-05-11T19:33:59.203Z,21.80
2019-05-11T19:36:28.759Z,21.80
2019-05-11T19:38:58.451Z,21.80
2019-05-11T19:41:28.134Z,21.80
2019-05-11T19:43:57.799Z,21.80
2019-05-11T19:46:28.069Z,21.80
2019-05-11T19:48:58.103Z,21.80
2019-05-11T19:51:29.134Z,21.80
2019-05-11T19:53:58.819Z,21.80
2019-05-11T19:56:28.972Z,21.80
2019-05-11T19:58:59.723Z,21.70
2019-05-11T20:01:29.283Z,21.70
2019-05-11T20:03:58.823Z,21.70
2019-05-11T20:06:28.414Z,21.70
2019-05-11T20:08:58.211Z,21.70
2019-05-11T20:11:28.092Z,21.70
2019-05-11T20:13:59.036Z,21.70
2019-05-11T20:16:28.753Z,21.70
2019-05-11T20:18:58.375Z,21.70
2019-05-11T20:21:29.029Z,21.70
2019-05-11T20:23:58.787Z,21.70
2019-05-11T20:26:29.183Z,21.70
2019-05-11T20:28:59.039Z,21.70
2019-05-11T20:31:28.595Z,21.70
2019-05-11T20:33:58.151Z,21.70
2019-05-11T20:36:28.017Z,21.70
2019-05-11T20:38:57.659Z,21.70
2019-05-11T20:41:27.967Z,21.70
2019-05-11T20:43:58.074Z,21.70
2019-05-11T20:46:28.131Z,21.70
2019-05-11T20:48:58.009Z,21.70
2019-05-11T20:51:35.825Z,21.70
2019-05-11T20:53:59.275Z,21.70
2019-05-11T20:56:28.882Z,21.70
2019-05-11T20:58:59.714Z,21.70
2019-05-11T21:01:29.430Z,21.70
2019-05-11T21:03:58.985Z,21.70
2019-05-11T21:06:29.830Z,21.70
2019-05-11T21:08:59.460Z,21.70
2019-05-11T21:11:29.030Z,21.70
2019-05-11T21:13:58.606Z,21.70
2019-05-11T21:16:28.170Z,21.70
2019-05-11T21:18:58.085Z,21.60
2019-05-11T21:21:30.405Z,21.60
2019-05-11T21:24:00.537Z,21.60
2019-05-11T21:26:30.078Z,21.60
2019-05-11T21:28:59.832Z,21.60
2019-05-11T21:31:29.372Z,21.60
2019-05-11T21:33:58.946Z,21.60
2019-05-11T21:36:28.528Z,21.60
2019-05-11T21:38:58.738Z,21.60
2019-05-11T21:41:31.040Z,21.60
2019-05-11T21:43:59.698Z,21.60
2019-05-11T21:46:29.313Z,21.60
2019-05-11T21:48:58.859Z,21.60
2019-05-11T21:51:28.840Z,21.60
2019-05-11T21:53:58.879Z,21.60
2019-05-11T21:56:28.866Z,21.60
2019-05-11T21:58:58.603Z,21.60
2019-05-11T22:01:28.354Z,21.60
2019-05-11T22:03:59.507Z,21.60
2019-05-11T22:06:30.541Z,21.60
2019-05-11T22:09:00.186Z,21.60
2019-05-11T22:11:32.165Z,21.60
2019-05-11T22:14:01.700Z,21.60
2019-05-11T22:16:31.311Z,21.60
2019-05-11T22:19:00.850Z,21.60
2019-05-11T22:21:30.422Z,21.50
2019-05-11T22:23:59.990Z,21.60
2019-05-11T22:26:29.538Z,21.60
2019-05-11T22:28:59.248Z,21.60
2019-05-11T22:31:28.802Z,21.60
2019-05-11T22:33:58.459Z,21.60
2019-05-11T22:36:28.353Z,21.50
2019-05-11T22:38:58.836Z,21.50
2019-05-11T22:41:28.951Z,21.60
2019-05-11T22:43:58.491Z,21.50
2019-05-11T22:46:28.211Z,21.60
2019-05-11T22:48:58.299Z,21.50
2019-05-11T22:51:28.759Z,21.50
2019-05-11T22:53:59.121Z,21.60
2019-05-11T22:56:30.347Z,21.50
2019-05-11T22:58:59.963Z,21.50
2019-05-11T23:01:29.854Z,21.50
2019-05-11T23:03:59.420Z,21.50
2019-05-11T23:06:28.982Z,21.50
2019-05-11T23:08:58.783Z,21.60
2019-05-11T23:11:33.095Z,21.50
2019-05-11T23:14:02.878Z,21.50
2019-05-11T23:16:32.430Z,21.50
2019-05-11T23:19:01.986Z,21.50
2019-05-11T23:21:31.557Z,21.50
2019-05-11T23:24:01.114Z,21.50
2019-05-11T23:26:31.765Z,21.50
2019-05-11T23:29:01.372Z,21.50
2019-05-11T23:31:31.934Z,21.50
2019-05-11T23:34:03.451Z,21.50
2019-05-11T23:36:33.028Z,21.50
2019-05-11T23:39:02.598Z,21.50
2019-05-11T23:41:32.151Z,21.50
2019-05-11T23:44:01.711Z,21.50
2019-05-11T23:46:31.263Z,21.50
2019-05-11T23:49:00.807Z,21.50
2019-05-11T23:51:30.505Z,21.50
2019-05-11T23:54:00.102Z,21.50
2019-05-11T23:56:29.614Z,21.50
2019-05-11T23:58:59.182Z,21.50
